Time,TemperatureF,DewpointF,PressureIn,WindDirection,WindDirectionDegrees,WindSpeedMPH,WindSpeedGustMPH,Humidity,HourlyPrecipIn,Conditions,Clouds,dailyrainin,SolarRadiationWatts/m^2,SoftwareType,DateUTC
2013-04-20 00:00:00,52.5,44.8,29.82,West,262,3.0,12.0,75,0.00,,CLR,0.63,0.00,VWS V14.01,2013-04-20 04:00:00,
2013-04-20 00:01:00,52.2,42.7,29.84,WSW,254,1.0,4.0,70,0.00,,CLR,0.00,0.00,VWS V14.01,2013-04-20 04:01:00,
2013-04-20 00:06:00,51.9,42.8,29.84,WSW,250,5.0,8.0,71,0.00,,CLR,0.00,0.00,VWS V14.01,2013-04-20 04:06:00,
2013-04-20 00:11:00,51.6,42.5,29.84,West,269,3.0,11.0,71,0.00,,CLR,0.00,0.00,VWS V14.01,2013-04-20 04:11:00,
2013-04-20 00:16:00,51.4,42.3,29.84,West,265,0.0,11.0,71,0.00,,CLR,0.00,0.00,VWS V14.01,2013-04-20 04:16:00,
2013-04-20 00:21:00,51.4,42.3,29.84,WNW,282,5.0,11.0,71,0.00,,CLR,0.00,0.00,VWS V14.01,2013-04-20 04:21:00,
2013-04-20 00:26:00,51.4,42.7,29.84,WNW,286,6.0,11.0,72,0.00,,CLR,0.00,0.00,VWS V14.01,2013-04-20 04:26:00,
2013-04-20 00:30:00,52.5,41.9,29.82,WSW,253,5.0,13.0,67,0.00,,CLR,0.00,0.00,VWS V14.01,2013-04-20 04:30:00,
2013-04-20 00:31:00,51.6,44.0,29.85,WNW,286,5.0,7.0,75,0.00,,CLR,0.00,0.00,VWS V14.01,2013-04-20 04:31:00,
2013-04-20 00:36:00,51.1,42.4,29.85,West,279,1.0,7.0,72,0.00,,CLR,0.00,0.00,VWS V14.01,2013-04-20 04:36:00,
2013-04-20 00:41:00,51.1,43.5,29.85,West,267,0.0,7.0,75,0.00,,CLR,0.00,0.00,VWS V14.01,2013-04-20 04:41:00,
2013-04-20 00:46:00,51.1,42.4,29.85,West,263,0.0,7.0,72,0.00,,CLR,0.00,0.00,VWS V14.01,2013-04-20 04:46:00,
2013-04-20 00:51:00,50.8,42.1,29.85,WSW,252,0.0,7.0,72,0.00,,CLR,0.00,0.00,VWS V14.01,2013-04-20 04:51:00,
2013-04-20 00:56:00,50.5,41.1,29.85,WSW,257,0.0,7.0,70,0.00,,CLR,0.00,0.00,VWS V14.01,2013-04-20 04:56:00,
2013-04-20 01:00:00,52.2,42.7,29.84,West,271,4.0,15.0,70,0.00,,CLR,0.00,0.00,VWS V14.01,2013-04-20 05:00:00,
2013-04-20 01:01:00,50.2,40.4,29.86,WSW,256,3.0,3.0,69,0.00,,CLR,0.00,0.00,VWS V14.01,2013-04-20 05:01:00,
2013-04-20 01:06:00,50.4,43.5,29.86,West,270,0.0,6.0,77,0.00,,CLR,0.00,0.00,VWS V14.01,2013-04-20 05:06:00,
2013-04-20 01:11:00,49.8,41.5,29.86,WSW,250,0.0,6.0,73,0.00,,CLR,0.00,0.00,VWS V14.01,2013-04-20 05:11:00,
2013-04-20 01:16:00,49.5,40.9,29.87,WSW,250,0.0,6.0,72,0.00,,CLR,0.00,0.00,VWS V14.01,2013-04-20 05:16:00,
2013-04-20 01:21:00,49.5,40.5,29.87,WSW,248,5.0,6.0,71,0.00,,CLR,0.00,0.00,VWS V14.01,2013-04-20 05:21:00,
2013-04-20 01:26:00,49.8,41.5,29.87,West,266,2.0,6.0,73,0.00,,CLR,0.00,0.00,VWS V14.01,2013-04-20 05:26:00,
2013-04-20 01:30:00,51.6,44.0,29.85,West,269,0.0,11.0,75,0.00,,CLR,0.00,0.00,VWS V14.01,2013-04-20 05:30:00,
2013-04-20 01:31:00,49.8,40.8,29.87,WSW,242,0.0,0.0,71,0.00,,CLR,0.00,0.00,VWS V14.01,2013-04-20 05:31:00,
2013-04-20 01:36:00,49.5,40.5,29.87,WSW,249,0.0,3.0,71,0.00,,CLR,0.00,0.00,VWS V14.01,2013-04-20 05:36:00,
2013-04-20 01:41:00,49.6,42.0,29.87,West,259,3.0,5.0,75,0.00,,CLR,0.00,0.00,VWS V14.01,2013-04-20 05:41:00,
2013-04-20 01:46:00,49.9,39.4,29.86,WNW,284,5.0,10.0,67,0.00,,CLR,0.00,0.00,VWS V14.01,2013-04-20 05:46:00,
2013-04-20 01:51:00,50.2,38.5,29.86,WNW,287,2.0,11.0,64,0.00,,CLR,0.00,0.00,VWS V14.01,2013-04-20 05:51:00,
2013-04-20 01:56:00,50.2,39.3,29.86,WNW,286,6.0,11.0,66,0.00,,CLR,0.00,0.00,VWS V14.01,2013-04-20 05:56:00,
2013-04-20 02:00:00,50.2,41.2,29.86,WSW,255,0.0,7.0,71,0.00,,CLR,0.00,0.00,VWS V14.01,2013-04-20 06:00:00,
2013-04-20 02:01:00,50.4,42.1,29.87,West,268,0.0,3.0,73,0.00,,CLR,0.00,0.00,VWS V14.01,2013-04-20 06:01:00,
2013-04-20 02:06:00,49.8,39.3,29.87,WSW,256,0.0,4.0,67,0.00,,CLR,0.00,0.00,VWS V14.01,2013-04-20 06:06:00,
2013-04-20 02:11:00,49.2,39.1,29.87,West,265,2.0,5.0,68,0.00,,CLR,0.00,0.00,VWS V14.01,2013-04-20 06:11:00,
2013-04-20 02:16:00,49.2,40.2,29.87,West,276,3.0,10.0,71,0.00,,CLR,0.00,0.00,VWS V14.01,2013-04-20 06:16:00,
2013-04-20 02:21:00,49.4,38.9,29.87,West,274,1.0,10.0,67,0.00,,CLR,0.00,0.00,VWS V14.01,2013-04-20 06:21:00,
2013-04-20 02:26:00,49.5,38.6,29.87,West,280,5.0,10.0,66,0.00,,CLR,0.00,0.00,VWS V14.01,2013-04-20 06:26:00,
2013-04-20 02:30:00,49.8,40.4,29.87,WSW,242,0.0,6.0,70,0.00,,CLR,0.00,0.00,VWS V14.01,2013-04-20 06:30:00,
2013-04-20 02:31:00,49.5,40.1,29.87,WSW,248,3.0,5.0,70,0.00,,CLR,0.00,0.00,VWS V14.01,2013-04-20 06:31:00,
2013-04-20 02:36:00,49.2,40.2,29.87,WSW,245,4.0,6.0,71,0.00,,CLR,0.00,0.00,VWS V14.01,2013-04-20 06:36:00,
2013-04-20 02:41:00,48.9,40.3,29.87,WSW,256,4.0,9.0,72,0.00,,CLR,0.00,0.00,VWS V14.01,2013-04-20 06:41:00,
2013-04-20 02:46:00,48.9,39.6,29.88,West,266,0.0,9.0,70,0.00,,CLR,0.00,0.00,VWS V14.01,2013-04-20 06:46:00,
2013-04-20 02:51:00,48.9,40.3,29.88,West,273,1.0,9.0,72,0.00,,CLR,0.00,0.00,VWS V14.01,2013-04-20 06:51:00,
2013-04-20 02:56:00,48.9,39.2,29.88,West,275,5.0,9.0,69,0.00,,CLR,0.00,0.00,VWS V14.01,2013-04-20 06:56:00,
2013-04-20 03:00:00,50.4,42.1,29.87,West,268,2.0,11.0,73,0.00,,CLR,0.00,0.00,VWS V14.01,2013-04-20 07:00:00,
2013-04-20 03:01:00,48.6,41.4,29.88,West,265,3.0,5.0,76,0.00,,CLR,0.00,0.00,VWS V14.01,2013-04-20 07:01:00,
2013-04-20 03:06:00,48.3,38.2,29.88,WSW,257,3.0,6.0,68,0.00,,CLR,0.00,0.00,VWS V14.01,2013-04-20 07:06:00,
2013-04-20 03:10:00,47.9,37.1,29.88,WSW,248,0.0,6.0,66,0.00,,CLR,0.00,0.00,VWS V14.01,2013-04-20 07:10:00,
2013-04-20 03:15:00,47.6,38.3,29.88,WSW,248,0.0,6.0,70,0.00,,CLR,0.00,0.00,VWS V14.01,2013-04-20 07:15:00,
2013-04-20 03:20:00,47.6,40.8,29.88,West,279,4.0,6.0,77,0.00,,CLR,0.00,0.00,VWS V14.01,2013-04-20 07:20:00,
2013-04-20 03:25:00,47.1,40.3,29.88,West,275,0.0,6.0,77,0.00,,CLR,0.00,0.00,VWS V14.01,2013-04-20 07:25:00,
2013-04-20 03:30:00,47.1,40.3,29.88,West,274,0.0,0.0,77,0.00,,CLR,0.00,0.00,VWS V14.01,2013-04-20 07:30:00,
2013-04-20 03:35:00,47.0,39.2,29.88,West,273,0.0,2.0,74,0.00,,CLR,0.00,0.00,VWS V14.01,2013-04-20 07:35:00,
2013-04-20 03:40:00,46.5,38.0,29.88,West,273,0.0,2.0,72,0.00,,CLR,0.00,0.00,VWS V14.01,2013-04-20 07:40:00,
2013-04-20 03:45:00,46.1,37.9,29.89,West,273,0.0,2.0,73,0.00,,CLR,0.00,0.00,VWS V14.01,2013-04-20 07:45:00,
2013-04-20 03:50:00,45.8,37.3,29.89,West,273,0.0,2.0,72,0.00,,CLR,0.00,0.00,VWS V14.01,2013-04-20 07:50:00,
2013-04-20 03:55:00,45.7,38.2,29.89,West,273,0.0,2.0,75,0.00,,CLR,0.00,0.00,VWS V14.01,2013-04-20 07:55:00,
2013-04-20 04:00:00,45.5,37.7,29.90,West,273,0.0,0.0,74,0.00,,CLR,0.00,0.00,VWS V14.01,2013-04-20 08:00:00,
2013-04-20 04:05:00,45.2,37.8,29.90,West,273,0.0,2.0,75,0.00,,CLR,0.00,0.00,VWS V14.01,2013-04-20 08:05:00,
2013-04-20 04:10:00,45.1,38.0,29.90,West,273,0.0,2.0,76,0.00,,CLR,0.00,0.00,VWS V14.01,2013-04-20 08:10:00,
2013-04-20 04:15:00,44.8,37.4,29.91,West,273,0.0,2.0,75,0.00,,CLR,0.00,0.00,VWS V14.01,2013-04-20 08:15:00,
2013-04-20 04:20:00,44.8,37.4,29.91,West,273,1.0,2.0,75,0.00,,CLR,0.00,0.00,VWS V14.01,2013-04-20 08:20:00,
2013-04-20 04:25:00,44.9,37.5,29.91,West,273,0.0,2.0,75,0.00,,CLR,0.00,0.00,VWS V14.01,2013-04-20 08:25:00,
2013-04-20 04:30:00,44.9,38.1,29.92,West,273,0.0,2.0,77,0.00,,CLR,0.00,0.00,VWS V14.01,2013-04-20 08:30:00,
2013-04-20 04:35:00,44.6,38.2,29.92,West,273,0.0,1.0,78,0.00,,CLR,0.00,0.00,VWS V14.01,2013-04-20 08:35:00,
2013-04-20 04:40:00,44.6,39.5,29.92,West,273,0.0,3.0,82,0.00,,CLR,0.00,0.00,VWS V14.01,2013-04-20 08:40:00,
2013-04-20 04:45:00,44.6,40.1,29.92,West,272,2.0,3.0,84,0.00,,CLR,0.00,0.00,VWS V14.01,2013-04-20 08:45:00,
2013-04-20 04:50:00,44.6,40.4,29.92,West,272,0.0,3.0,85,0.00,,CLR,0.00,0.00,VWS V14.01,2013-04-20 08:50:00,
2013-04-20 04:55:00,44.8,41.2,29.92,West,272,0.0,3.0,87,0.00,,CLR,0.00,0.00,VWS V14.01,2013-04-20 08:55:00,
2013-04-20 05:00:00,44.6,41.0,29.93,West,272,0.0,0.0,87,0.00,,CLR,0.00,0.00,VWS V14.01,2013-04-20 09:00:00,
2013-04-20 05:05:00,44.5,40.0,29.93,West,272,0.0,2.0,84,0.00,,CLR,0.00,0.00,VWS V14.01,2013-04-20 09:05:00,
2013-04-20 05:10:00,44.6,39.1,29.93,WSW,244,1.0,5.0,81,0.00,,CLR,0.00,0.00,VWS V14.01,2013-04-20 09:10:00,
2013-04-20 05:15:00,44.6,38.2,29.93,WSW,246,0.0,5.0,78,0.00,,CLR,0.00,0.00,VWS V14.01,2013-04-20 09:15:00,
2013-04-20 05:20:00,44.8,37.4,29.93,WSW,245,0.0,5.0,75,0.00,,CLR,0.00,0.00,VWS V14.01,2013-04-20 09:20:00,
2013-04-20 05:25:00,44.6,37.2,29.93,WSW,246,0.0,5.0,75,0.00,,CLR,0.00,0.00,VWS V14.01,2013-04-20 09:25:00,
2013-04-20 05:30:00,44.5,36.4,29.94,WSW,246,0.0,0.0,73,0.00,,CLR,0.00,0.00,VWS V14.01,2013-04-20 09:30:00,
2013-04-20 05:35:00,44.3,35.9,29.94,WSW,246,0.0,0.0,72,0.00,,CLR,0.00,0.00,VWS V14.01,2013-04-20 09:35:00,
2013-04-20 05:40:00,44.3,35.9,29.94,WSW,248,3.0,4.0,72,0.00,,CLR,0.00,0.00,VWS V14.01,2013-04-20 09:40:00,
2013-04-20 05:45:00,44.3,35.5,29.95,WSW,248,0.0,4.0,71,0.00,,CLR,0.00,0.00,VWS V14.01,2013-04-20 09:45:00,
2013-04-20 05:50:00,44.3,35.5,29.95,WSW,248,0.0,4.0,71,0.00,,CLR,0.00,0.00,VWS V14.01,2013-04-20 09:50:00,
2013-04-20 05:55:00,44.1,35.3,29.95,WSW,248,0.0,4.0,71,0.00,,CLR,0.00,0.00,VWS V14.01,2013-04-20 09:55:00,
2013-04-20 06:00:00,43.8,35.7,29.95,WSW,248,0.0,4.0,73,0.00,,CLR,0.00,0.00,VWS V14.01,2013-04-20 10:00:00,
2013-04-20 06:05:00,43.9,37.2,29.95,WSW,248,0.0,4.0,77,0.00,,CLR,0.00,0.00,VWS V14.01,2013-04-20 10:05:00,
2013-04-20 06:10:00,43.8,36.1,29.95,WSW,248,0.0,4.0,74,0.00,,CLR,0.00,0.00,VWS V14.01,2013-04-20 10:10:00,
2013-04-20 06:15:00,43.5,35.8,29.97,WSW,248,0.0,4.0,74,0.00,,CLR,0.00,0.00,VWS V14.01,2013-04-20 10:15:00,
2013-04-20 06:20:00,43.3,35.2,29.97,WSW,248,0.0,4.0,73,0.00,,CLR,0.00,0.00,VWS V14.01,2013-04-20 10:20:00,
2013-04-20 06:25:00,43.3,36.3,29.97,WSW,248,0.0,4.0,76,0.00,,CLR,0.00,0.00,VWS V14.01,2013-04-20 10:25:00,
2013-04-20 06:30:00,43.3,37.2,29.98,WSW,248,0.0,4.0,79,0.00,,CLR,0.00,0.00,VWS V14.01,2013-04-20 10:30:00,
2013-04-20 06:35:00,43.2,38.1,29.98,West,266,2.0,4.0,82,0.00,,CLR,0.00,0.00,VWS V14.01,2013-04-20 10:35:00,
2013-04-20 06:40:00,43.5,39.3,29.98,West,267,0.0,4.0,85,0.00,,CLR,0.00,0.00,VWS V14.01,2013-04-20 10:40:00,
2013-04-20 06:45:00,43.2,38.4,29.99,West,267,0.0,4.0,83,0.00,,CLR,0.00,0.00,VWS V14.01,2013-04-20 10:45:00,
2013-04-20 06:50:00,43.2,38.4,29.99,WSW,240,0.0,4.0,83,0.00,,CLR,0.00,0.00,VWS V14.01,2013-04-20 10:50:00,
2013-04-20 06:55:00,43.2,39.3,29.99,WSW,238,0.0,4.0,86,0.00,,CLR,0.00,0.00,VWS V14.01,2013-04-20 10:55:00,
2013-04-20 07:00:00,43.3,40.0,29.99,SW,230,1.0,4.0,88,0.00,,CLR,0.00,7.00,VWS V14.01,2013-04-20 11:00:00,
2013-04-20 07:05:00,43.3,40.6,29.99,SW,236,1.0,3.0,90,0.00,,CLR,0.00,14.00,VWS V14.01,2013-04-20 11:05:00,
2013-04-20 07:10:00,42.9,39.9,29.99,SW,236,1.0,3.0,89,0.00,,CLR,0.00,23.00,VWS V14.01,2013-04-20 11:10:00,
2013-04-20 07:15:00,42.8,39.8,30.00,WSW,257,0.0,3.0,89,0.00,,CLR,0.00,25.00,VWS V14.01,2013-04-20 11:15:00,
2013-04-20 07:20:00,42.9,38.7,30.00,WSW,257,0.0,3.0,85,0.00,,CLR,0.00,28.00,VWS V14.01,2013-04-20 11:20:00,
2013-04-20 07:25:00,43.1,38.3,30.00,WSW,257,0.0,3.0,83,0.00,,CLR,0.00,32.00,VWS V14.01,2013-04-20 11:25:00,
2013-04-20 07:30:00,43.6,38.5,30.01,WSW,257,0.0,3.0,82,0.00,,CLR,0.00,39.00,VWS V14.01,2013-04-20 11:30:00,
2013-04-20 07:35:00,44.3,37.9,30.01,WSW,257,0.0,1.0,78,0.00,,CLR,0.00,42.00,VWS V14.01,2013-04-20 11:35:00,
2013-04-20 07:40:00,44.8,37.4,30.01,WSW,256,0.0,2.0,75,0.00,,CLR,0.00,39.00,VWS V14.01,2013-04-20 11:40:00,
2013-04-20 07:45:00,45.2,34.5,30.02,WSW,256,0.0,2.0,66,0.00,,CLR,0.00,44.00,VWS V14.01,2013-04-20 11:45:00,
2013-04-20 07:50:00,45.7,34.2,30.02,WSW,256,0.0,2.0,64,0.00,,CLR,0.00,153.00,VWS V14.01,2013-04-20 11:50:00,
2013-04-20 07:55:00,46.2,36.6,30.02,WSW,249,0.0,3.0,69,0.00,,CLR,0.00,169.00,VWS V14.01,2013-04-20 11:55:00,
2013-04-20 08:00:00,43.3,39.7,29.99,SW,230,0.0,4.0,87,0.00,,CLR,0.00,7.00,VWS V14.01,2013-04-20 12:00:00,
2013-04-20 08:05:00,46.8,34.9,30.03,WNW,295,3.0,3.0,63,0.00,,CLR,0.00,46.00,VWS V14.01,2013-04-20 12:05:00,
2013-04-20 08:10:00,47.3,29.6,30.03,West,278,2.0,7.0,50,0.00,,CLR,0.00,137.00,VWS V14.01,2013-04-20 12:10:00,
2013-04-20 08:15:00,47.7,31.9,30.03,NW,304,4.0,7.0,54,0.00,,CLR,0.00,229.00,VWS V14.01,2013-04-20 12:15:00,
2013-04-20 08:20:00,48.0,31.2,30.03,NW,313,3.0,7.0,52,0.00,,CLR,0.00,246.00,VWS V14.01,2013-04-20 12:20:00,
2013-04-20 08:25:00,48.3,32.0,30.03,WNW,290,0.0,7.0,53,0.00,,CLR,0.00,264.00,VWS V14.01,2013-04-20 12:25:00,
2013-04-20 08:30:00,48.5,31.2,30.04,West,276,1.0,7.0,51,0.00,,CLR,0.00,283.00,VWS V14.01,2013-04-20 12:30:00,
2013-04-20 08:35:00,48.8,32.9,30.04,WNW,296,0.0,4.0,54,0.00,,CLR,0.00,299.00,VWS V14.01,2013-04-20 12:35:00,
2013-04-20 08:40:00,48.9,33.5,30.04,WSW,258,0.0,4.0,55,0.00,,CLR,0.00,315.00,VWS V14.01,2013-04-20 12:40:00,
2013-04-20 08:45:00,48.9,31.6,30.04,West,269,0.0,5.0,51,0.00,,CLR,0.00,330.00,VWS V14.01,2013-04-20 12:45:00,
2013-04-20 08:50:00,49.4,34.8,30.04,NNW,342,0.0,5.0,57,0.00,,CLR,0.00,346.00,VWS V14.01,2013-04-20 12:50:00,
2013-04-20 08:55:00,50.1,33.2,30.04,North,355,0.0,5.0,52,0.00,,CLR,0.00,364.00,VWS V14.01,2013-04-20 12:55:00,
2013-04-20 09:00:00,50.4,32.0,30.05,NNW,346,1.0,5.0,49,0.00,,CLR,0.00,381.00,VWS V14.01,2013-04-20 13:00:00,
2013-04-20 09:05:00,50.4,32.0,30.05,NW,325,0.0,3.0,49,0.00,,CLR,0.00,399.00,VWS V14.01,2013-04-20 13:05:00,
2013-04-20 09:10:00,50.8,29.1,30.05,NE,53,0.0,4.0,43,0.00,,CLR,0.00,418.00,VWS V14.01,2013-04-20 13:10:00,
2013-04-20 09:15:00,51.4,29.1,30.05,NE,55,0.0,4.0,42,0.00,,CLR,0.00,434.00,VWS V14.01,2013-04-20 13:15:00,
2013-04-20 09:20:00,51.9,31.2,30.05,ENE,62,0.0,4.0,45,0.00,,CLR,0.00,450.00,VWS V14.01,2013-04-20 13:20:00,
2013-04-20 09:25:00,52.2,29.8,30.05,ENE,57,0.0,5.0,42,0.00,,CLR,0.00,469.00,VWS V14.01,2013-04-20 13:25:00,
2013-04-20 09:30:00,51.9,28.4,30.05,ENE,64,5.0,6.0,40,0.00,,CLR,0.00,485.00,VWS V14.01,2013-04-20 13:30:00,
2013-04-20 09:35:00,51.7,29.9,30.05,NE,44,1.0,4.0,43,0.00,,CLR,0.00,503.00,VWS V14.01,2013-04-20 13:35:00,
2013-04-20 09:40:00,52.3,30.5,30.05,ENE,63,0.0,4.0,43,0.00,,CLR,0.00,517.00,VWS V14.01,2013-04-20 13:40:00,
2013-04-20 09:45:00,53.2,30.7,30.06,East,80,1.0,4.0,42,0.00,,CLR,0.00,534.00,VWS V14.01,2013-04-20 13:45:00,
2013-04-20 09:50:00,53.8,33.0,30.06,ENE,73,0.0,4.0,45,0.00,,CLR,0.00,547.00,VWS V14.01,2013-04-20 13:50:00,
2013-04-20 09:55:00,54.1,32.7,30.06,NE,51,4.0,5.0,44,0.00,,CLR,0.00,568.00,VWS V14.01,2013-04-20 13:55:00,
2013-04-20 10:00:00,53.6,29.9,30.06,NE,51,0.0,5.0,40,0.00,,CLR,0.00,582.00,VWS V14.01,2013-04-20 14:00:00,
2013-04-20 10:05:00,53.3,27.0,30.06,East,82,4.0,4.0,36,0.00,,CLR,0.00,599.00,VWS V14.01,2013-04-20 14:05:00,
2013-04-20 10:10:00,53.1,26.9,30.06,ESE,106,1.0,4.0,36,0.00,,CLR,0.00,613.00,VWS V14.01,2013-04-20 14:10:00,
2013-04-20 10:15:00,52.6,27.7,30.06,ENE,66,3.0,6.0,38,0.00,,CLR,0.00,626.00,VWS V14.01,2013-04-20 14:15:00,
2013-04-20 10:20:00,52.5,27.6,30.06,ENE,57,0.0,6.0,38,0.00,,CLR,0.00,640.00,VWS V14.01,2013-04-20 14:20:00,
2013-04-20 10:25:00,53.1,27.5,30.06,East,80,0.0,6.0,37,0.00,,CLR,0.00,654.00,VWS V14.01,2013-04-20 14:25:00,
2013-04-20 10:30:00,53.8,31.9,30.07,North,355,0.0,6.0,43,0.00,,CLR,0.00,670.00,VWS V14.01,2013-04-20 14:30:00,
2013-04-20 10:35:00,53.9,28.2,30.07,ENE,67,4.0,4.0,37,0.00,,CLR,0.00,684.00,VWS V14.01,2013-04-20 14:35:00,
2013-04-20 10:40:00,53.2,29.5,30.07,East,79,1.0,5.0,40,0.00,,CLR,0.00,696.00,VWS V14.01,2013-04-20 14:40:00,
2013-04-20 10:45:00,52.9,28.0,30.07,ESE,109,1.0,6.0,38,0.00,,CLR,0.00,710.00,VWS V14.01,2013-04-20 14:45:00,
2013-04-20 10:50:00,52.9,28.6,30.07,ESE,107,0.0,6.0,39,0.00,,CLR,0.00,724.00,VWS V14.01,2013-04-20 14:50:00,
2013-04-20 10:55:00,53.2,27.0,30.07,ENE,74,0.0,6.0,36,0.00,,CLR,0.00,737.00,VWS V14.01,2013-04-20 14:55:00,
2013-04-20 10:59:00,53.5,28.5,30.07,ENE,78,3.0,6.0,38,0.00,,CLR,0.00,747.00,VWS V14.01,2013-04-20 14:59:00,
2013-04-20 11:00:00,53.6,25.9,30.06,NE,51,0.0,5.0,34,0.00,,CLR,0.00,585.00,VWS V14.01,2013-04-20 15:00:00,
2013-04-20 11:04:00,53.5,27.2,30.07,East,82,0.0,3.0,36,0.00,,CLR,0.00,759.00,VWS V14.01,2013-04-20 15:04:00,
2013-04-20 11:09:00,53.9,29.5,30.07,ENE,61,0.0,4.0,39,0.00,,CLR,0.00,773.00,VWS V14.01,2013-04-20 15:09:00,
2013-04-20 11:14:00,53.9,28.2,30.07,ENE,73,2.0,4.0,37,0.00,,CLR,0.00,784.00,VWS V14.01,2013-04-20 15:14:00,
2013-04-20 11:19:00,53.9,31.4,30.07,East,81,0.0,4.0,42,0.00,,CLR,0.00,793.00,VWS V14.01,2013-04-20 15:19:00,
2013-04-20 11:24:00,54.4,28.7,30.07,ESE,103,1.0,5.0,37,0.00,,CLR,0.00,807.00,VWS V14.01,2013-04-20 15:24:00,
2013-04-20 11:29:00,54.2,28.5,30.07,ESE,107,0.0,5.0,37,0.00,,CLR,0.00,816.00,VWS V14.01,2013-04-20 15:29:00,
2013-04-20 11:30:00,53.8,31.9,30.07,North,355,0.0,6.0,43,0.00,,CLR,0.00,671.00,VWS V14.01,2013-04-20 15:30:00,
2013-04-20 11:34:00,54.1,29.1,30.07,ESE,105,2.0,3.0,38,0.00,,CLR,0.00,826.00,VWS V14.01,2013-04-20 15:34:00,
2013-04-20 11:39:00,54.1,26.4,30.07,ENE,63,0.0,3.0,34,0.00,,CLR,0.00,837.00,VWS V14.01,2013-04-20 15:39:00,
2013-04-20 11:44:00,54.4,30.0,30.07,East,98,0.0,3.0,39,0.00,,CLR,0.00,846.00,VWS V14.01,2013-04-20 15:44:00,
2013-04-20 11:49:00,54.4,30.0,30.07,ENE,61,2.0,6.0,39,0.00,,CLR,0.00,854.00,VWS V14.01,2013-04-20 15:49:00,
2013-04-20 11:54:00,55.3,28.8,30.07,East,95,0.0,6.0,36,0.00,,CLR,0.00,865.00,VWS V14.01,2013-04-20 15:54:00,
2013-04-20 11:59:00,55.3,27.4,30.07,East,91,1.0,6.0,34,0.00,,CLR,0.00,872.00,VWS V14.01,2013-04-20 15:59:00,
2013-04-20 12:00:00,53.5,27.2,30.07,East,80,2.0,6.0,36,0.00,,CLR,0.00,751.00,VWS V14.01,2013-04-20 16:00:00,
2013-04-20 12:04:00,55.6,29.1,30.07,ESE,104,0.0,1.0,36,0.00,,CLR,0.00,881.00,VWS V14.01,2013-04-20 16:04:00,
2013-04-20 12:09:00,56.5,27.0,30.07,ESE,121,1.0,1.0,32,0.00,,CLR,0.00,889.00,VWS V14.01,2013-04-20 16:09:00,
2013-04-20 12:14:00,56.5,29.2,30.07,SE,142,2.0,3.0,35,0.00,,CLR,0.00,895.00,VWS V14.01,2013-04-20 16:14:00,
2013-04-20 12:19:00,56.5,29.2,30.07,ESE,121,3.0,6.0,35,0.00,,CLR,0.00,902.00,VWS V14.01,2013-04-20 16:19:00,
2013-04-20 12:24:00,56.0,30.8,30.07,East,101,5.0,6.0,38,0.00,,CLR,0.00,909.00,VWS V14.01,2013-04-20 16:24:00,
2013-04-20 12:29:00,55.6,29.8,30.07,East,96,4.0,6.0,37,0.00,,CLR,0.00,912.00,VWS V14.01,2013-04-20 16:29:00,
2013-04-20 12:30:00,54.2,29.8,30.07,ESE,107,0.0,5.0,39,0.00,,CLR,0.00,817.00,VWS V14.01,2013-04-20 16:30:00,
2013-04-20 12:34:00,55.6,32.3,30.07,ESE,111,3.0,4.0,41,0.00,,CLR,0.00,914.00,VWS V14.01,2013-04-20 16:34:00,
2013-04-20 12:39:00,56.0,32.0,30.07,ESE,119,2.0,5.0,40,0.00,,CLR,0.00,921.00,VWS V14.01,2013-04-20 16:39:00,
2013-04-20 12:44:00,56.7,27.9,30.07,SE,142,0.0,5.0,33,0.00,,CLR,0.00,926.00,VWS V14.01,2013-04-20 16:44:00,
2013-04-20 12:49:00,57.3,30.6,30.06,SE,142,2.0,5.0,36,0.00,,CLR,0.00,930.00,VWS V14.01,2013-04-20 16:49:00,
2013-04-20 12:54:00,57.5,32.1,30.06,SE,129,5.0,5.0,38,0.00,,CLR,0.00,933.00,VWS V14.01,2013-04-20 16:54:00,
2013-04-20 12:59:00,57.6,33.5,30.06,ESE,118,2.0,5.0,40,0.00,,CLR,0.00,937.00,VWS V14.01,2013-04-20 16:59:00,
2013-04-20 13:00:00,55.3,27.4,30.07,East,90,0.0,6.0,34,0.00,,CLR,0.00,872.00,VWS V14.01,2013-04-20 17:00:00,
2013-04-20 13:04:00,57.8,28.9,30.06,SE,128,0.0,4.0,33,0.00,,CLR,0.00,940.00,VWS V14.01,2013-04-20 17:04:00,
2013-04-20 13:09:00,57.8,30.4,30.06,ESE,105,2.0,7.0,35,0.00,,CLR,0.00,944.00,VWS V14.01,2013-04-20 17:09:00,
2013-04-20 13:14:00,57.5,30.1,30.06,ESE,110,5.0,7.0,35,0.00,,CLR,0.00,946.00,VWS V14.01,2013-04-20 17:14:00,
2013-04-20 13:19:00,57.3,31.3,30.05,East,98,3.0,7.0,37,0.00,,CLR,0.00,947.00,VWS V14.01,2013-04-20 17:19:00,
2013-04-20 13:24:00,57.2,29.1,30.05,East,97,4.0,7.0,34,0.00,,CLR,0.00,949.00,VWS V14.01,2013-04-20 17:24:00,
2013-04-20 13:29:00,57.2,31.8,30.05,ESE,116,1.0,7.0,38,0.00,,CLR,0.00,951.00,VWS V14.01,2013-04-20 17:29:00,
2013-04-20 13:30:00,55.4,31.5,30.07,East,93,3.0,6.0,40,0.00,,CLR,0.00,912.00,VWS V14.01,2013-04-20 17:30:00,
2013-04-20 13:34:00,57.3,29.2,30.04,North,360,5.0,5.0,34,0.00,,CLR,0.00,953.00,VWS V14.01,2013-04-20 17:34:00,
2013-04-20 13:39:00,57.6,30.9,30.04,SE,132,2.0,7.0,36,0.00,,CLR,0.00,951.00,VWS V14.01,2013-04-20 17:39:00,
2013-04-20 13:44:00,58.3,31.5,30.04,ESE,119,4.0,7.0,36,0.00,,CLR,0.00,951.00,VWS V14.01,2013-04-20 17:44:00,
2013-04-20 13:49:00,58.1,33.3,30.04,East,87,4.0,7.0,39,0.00,,CLR,0.00,949.00,VWS V14.01,2013-04-20 17:49:00,
2013-04-20 13:54:00,58.4,32.2,30.04,SE,132,0.0,7.0,37,0.00,,CLR,0.00,947.00,VWS V14.01,2013-04-20 17:54:00,
2013-04-20 13:59:00,59.0,33.5,30.04,East,101,5.0,7.0,38,0.00,,CLR,0.00,947.00,VWS V14.01,2013-04-20 17:59:00,
2013-04-20 14:00:00,57.6,33.5,30.06,ESE,120,3.0,5.0,40,0.00,,CLR,0.00,939.00,VWS V14.01,2013-04-20 18:00:00,
2013-04-20 14:04:00,59.2,33.6,30.04,ESE,108,3.0,11.0,38,0.00,,CLR,0.00,944.00,VWS V14.01,2013-04-20 18:04:00,
2013-04-20 14:09:00,59.6,29.0,30.04,ESE,123,1.0,11.0,31,0.00,,CLR,0.00,939.00,VWS V14.01,2013-04-20 18:09:00,
2013-04-20 14:14:00,60.1,31.7,30.04,ESE,123,3.0,11.0,34,0.00,,CLR,0.00,940.00,VWS V14.01,2013-04-20 18:14:00,
2013-04-20 14:19:00,60.2,36.4,30.04,ESE,113,0.0,11.0,41,0.00,,CLR,0.00,935.00,VWS V14.01,2013-04-20 18:19:00,
2013-04-20 14:24:00,60.7,35.0,30.04,ESE,109,3.0,11.0,38,0.00,,CLR,0.00,932.00,VWS V14.01,2013-04-20 18:24:00,
2013-04-20 14:29:00,60.7,35.0,30.04,SSE,148,1.0,11.0,38,0.00,,CLR,0.00,928.00,VWS V14.01,2013-04-20 18:29:00,
2013-04-20 14:30:00,57.3,33.8,30.04,ESE,114,3.0,7.0,41,0.00,,CLR,0.00,951.00,VWS V14.01,2013-04-20 18:30:00,
2013-04-20 14:34:00,61.0,35.9,30.03,ESE,108,3.0,5.0,39,0.00,,CLR,0.00,921.00,VWS V14.01,2013-04-20 18:34:00,
2013-04-20 14:39:00,60.9,35.8,30.03,SE,126,4.0,5.0,39,0.00,,CLR,0.00,916.00,VWS V14.01,2013-04-20 18:39:00,
2013-04-20 14:44:00,61.5,35.0,30.03,SE,138,0.0,5.0,37,0.00,,CLR,0.00,911.00,VWS V14.01,2013-04-20 18:44:00,
2013-04-20 14:49:00,62.1,30.3,30.02,ESE,113,0.0,5.0,30,0.00,,CLR,0.00,905.00,VWS V14.01,2013-04-20 18:49:00,
2013-04-20 14:54:00,62.1,33.4,30.02,SE,130,2.0,6.0,34,0.00,,CLR,0.00,900.00,VWS V14.01,2013-04-20 18:54:00,
2013-04-20 14:59:00,61.6,33.0,30.02,East,88,2.0,6.0,34,0.00,,CLR,0.00,889.00,VWS V14.01,2013-04-20 18:59:00,
2013-04-20 15:00:00,58.9,30.6,30.04,ENE,74,1.0,7.0,34,0.00,,CLR,0.00,946.00,VWS V14.01,2013-04-20 19:00:00,
2013-04-20 15:04:00,61.6,33.0,30.02,SE,138,0.0,2.0,34,0.00,,CLR,0.00,882.00,VWS V14.01,2013-04-20 19:04:00,
2013-04-20 15:09:00,62.1,33.4,30.02,ESE,113,4.0,5.0,34,0.00,,CLR,0.00,875.00,VWS V14.01,2013-04-20 19:09:00,
2013-04-20 15:14:00,62.7,33.2,30.02,SE,144,0.0,5.0,33,0.00,,CLR,0.00,865.00,VWS V14.01,2013-04-20 19:14:00,
2013-04-20 15:19:00,62.9,32.6,30.02,SE,128,4.0,5.0,32,0.00,,CLR,0.00,860.00,VWS V14.01,2013-04-20 19:19:00,
2013-04-20 15:24:00,62.6,36.0,30.02,South,171,2.0,7.0,37,0.00,,CLR,0.00,851.00,VWS V14.01,2013-04-20 19:24:00,
2013-04-20 15:29:00,62.9,35.6,30.02,East,94,0.0,7.0,36,0.00,,CLR,0.00,842.00,VWS V14.01,2013-04-20 19:29:00,
2013-04-20 15:30:00,60.9,35.2,30.03,SE,144,1.0,11.0,38,0.00,,CLR,0.00,926.00,VWS V14.01,2013-04-20 19:30:00,
2013-04-20 15:34:00,62.3,31.3,30.01,East,94,0.0,4.0,31,0.00,,CLR,0.00,833.00,VWS V14.01,2013-04-20 19:34:00,
2013-04-20 15:39:00,62.7,34.0,30.01,ESE,105,0.0,4.0,34,0.00,,CLR,0.00,821.00,VWS V14.01,2013-04-20 19:39:00,
2013-04-20 15:44:00,63.2,33.6,30.01,WNW,284,1.0,7.0,33,0.00,,CLR,0.00,810.00,VWS V14.01,2013-04-20 19:44:00,
2013-04-20 15:49:00,63.7,33.3,30.01,ESE,122,0.0,7.0,32,0.00,,CLR,0.00,800.00,VWS V14.01,2013-04-20 19:49:00,
2013-04-20 15:54:00,63.7,30.9,30.01,SE,130,1.0,7.0,29,0.00,,CLR,0.00,789.00,VWS V14.01,2013-04-20 19:54:00,
2013-04-20 15:59:00,63.9,31.9,30.01,East,92,4.0,7.0,30,0.00,,CLR,0.00,780.00,VWS V14.01,2013-04-20 19:59:00,
2013-04-20 16:00:00,61.5,33.6,30.02,ESE,113,0.0,6.0,35,0.00,,CLR,0.00,889.00,VWS V14.01,2013-04-20 20:00:00,
2013-04-20 16:04:00,63.5,33.1,30.01,ESE,117,6.0,6.0,32,0.00,,CLR,0.00,765.00,VWS V14.01,2013-04-20 20:04:00,
2013-04-20 16:09:00,63.9,31.9,30.01,ESE,121,0.0,6.0,30,0.00,,CLR,0.00,752.00,VWS V14.01,2013-04-20 20:09:00,
2013-04-20 16:14:00,64.5,31.6,30.01,SE,146,0.0,6.0,29,0.00,,CLR,0.00,740.00,VWS V14.01,2013-04-20 20:14:00,
2013-04-20 16:19:00,65.2,33.8,30.01,SSE,149,4.0,6.0,31,0.00,,CLR,0.00,726.00,VWS V14.01,2013-04-20 20:19:00,
2013-04-20 16:24:00,65.2,32.2,30.01,SE,140,0.0,7.0,29,0.00,,CLR,0.00,714.00,VWS V14.01,2013-04-20 20:24:00,
2013-04-20 16:29:00,64.5,37.0,30.01,SE,133,3.0,7.0,36,0.00,,CLR,0.00,701.00,VWS V14.01,2013-04-20 20:29:00,
2013-04-20 16:30:00,62.7,30.0,30.01,East,92,1.0,7.0,29,0.00,,CLR,0.00,838.00,VWS V14.01,2013-04-20 20:30:00,
2013-04-20 16:34:00,64.0,33.6,30.01,SE,129,0.0,5.0,32,0.00,,CLR,0.00,684.00,VWS V14.01,2013-04-20 20:34:00,
2013-04-20 16:39:00,64.5,34.0,30.01,SE,132,2.0,9.0,32,0.00,,CLR,0.00,670.00,VWS V14.01,2013-04-20 20:39:00,
2013-04-20 16:44:00,64.5,36.3,30.01,SE,135,3.0,9.0,35,0.00,,CLR,0.00,654.00,VWS V14.01,2013-04-20 20:44:00,
2013-04-20 16:49:00,64.7,35.0,30.01,SE,139,6.0,9.0,33,0.00,,CLR,0.00,640.00,VWS V14.01,2013-04-20 20:49:00,
2013-04-20 16:54:00,64.5,35.5,30.01,SE,132,3.0,9.0,34,0.00,,CLR,0.00,628.00,VWS V14.01,2013-04-20 20:54:00,
2013-04-20 16:59:00,64.5,35.5,30.01,SE,128,1.0,9.0,34,0.00,,CLR,0.00,610.00,VWS V14.01,2013-04-20 20:59:00,
2013-04-20 17:00:00,63.7,30.0,30.01,SE,133,4.0,7.0,28,0.00,,CLR,0.00,775.00,VWS V14.01,2013-04-20 21:00:00,
2013-04-20 17:04:00,64.5,34.0,30.00,SE,143,5.0,6.0,32,0.00,,CLR,0.00,596.00,VWS V14.01,2013-04-20 21:04:00,
2013-04-20 17:09:00,64.5,37.0,30.00,SE,140,5.0,7.0,36,0.00,,CLR,0.00,582.00,VWS V14.01,2013-04-20 21:09:00,
2013-04-20 17:14:00,64.7,34.2,30.00,SE,132,3.0,7.0,32,0.00,,CLR,0.00,564.00,VWS V14.01,2013-04-20 21:14:00,
2013-04-20 17:19:00,65.0,35.2,30.01,SE,132,1.0,7.0,33,0.00,,CLR,0.00,547.00,VWS V14.01,2013-04-20 21:19:00,
2013-04-20 17:24:00,65.2,36.2,30.01,SE,135,4.0,7.0,34,0.00,,CLR,0.00,529.00,VWS V14.01,2013-04-20 21:24:00,
2013-04-20 17:29:00,65.2,38.3,30.01,SE,134,6.0,7.0,37,0.00,,CLR,0.00,517.00,VWS V14.01,2013-04-20 21:29:00,
2013-04-20 17:30:00,64.3,33.8,30.01,ESE,118,5.0,8.0,32,0.00,,CLR,0.00,696.00,VWS V14.01,2013-04-20 21:30:00,
2013-04-20 17:34:00,65.0,38.8,30.01,SE,136,3.0,6.0,38,0.00,,CLR,0.00,499.00,VWS V14.01,2013-04-20 21:34:00,
2013-04-20 17:39:00,64.8,33.5,30.01,SE,133,5.0,8.0,31,0.00,,CLR,0.00,482.00,VWS V14.01,2013-04-20 21:39:00,
2013-04-20 17:44:00,65.0,36.0,30.01,SE,142,4.0,8.0,34,0.00,,CLR,0.00,462.00,VWS V14.01,2013-04-20 21:44:00,
2013-04-20 17:49:00,64.7,34.2,30.01,SE,144,0.0,8.0,32,0.00,,CLR,0.00,446.00,VWS V14.01,2013-04-20 21:49:00,
2013-04-20 17:54:00,64.7,35.7,30.01,SE,134,5.0,8.0,34,0.00,,CLR,0.00,429.00,VWS V14.01,2013-04-20 21:54:00,
2013-04-20 17:59:00,64.7,34.2,30.01,SE,132,2.0,9.0,32,0.00,,CLR,0.00,413.00,VWS V14.01,2013-04-20 21:59:00,
2013-04-20 18:00:00,64.5,34.0,30.00,SSE,158,4.0,9.0,32,0.00,,CLR,0.00,606.00,VWS V14.01,2013-04-20 22:00:00,
2013-04-20 18:04:00,64.8,35.8,30.01,SE,132,0.0,4.0,34,0.00,,CLR,0.00,396.00,VWS V14.01,2013-04-20 22:04:00,
2013-04-20 18:09:00,65.0,32.8,30.01,SSE,149,0.0,4.0,30,0.00,,CLR,0.00,378.00,VWS V14.01,2013-04-20 22:09:00,
2013-04-20 18:14:00,65.3,36.2,30.01,SSW,210,0.0,4.0,34,0.00,,CLR,0.00,359.00,VWS V14.01,2013-04-20 22:14:00,
2013-04-20 18:19:00,65.8,35.9,30.02,SSE,160,1.0,4.0,33,0.00,,CLR,0.00,345.00,VWS V14.01,2013-04-20 22:19:00,
2013-04-20 18:24:00,65.6,32.5,30.02,SSE,154,0.0,4.0,29,0.00,,CLR,0.00,327.00,VWS V14.01,2013-04-20 22:24:00,
2013-04-20 18:29:00,65.8,32.7,30.02,SE,140,0.0,4.0,29,0.00,,CLR,0.00,308.00,VWS V14.01,2013-04-20 22:29:00,
2013-04-20 18:30:00,65.2,35.4,30.01,SE,145,3.0,7.0,33,0.00,,CLR,0.00,510.00,VWS V14.01,2013-04-20 22:30:00,
2013-04-20 18:34:00,66.0,35.3,30.02,SE,141,0.0,2.0,32,0.00,,CLR,0.00,294.00,VWS V14.01,2013-04-20 22:34:00,
2013-04-20 18:39:00,66.3,35.6,30.02,SE,130,0.0,2.0,32,0.00,,CLR,0.00,276.00,VWS V14.01,2013-04-20 22:39:00,
2013-04-20 18:44:00,66.1,35.4,30.02,SE,142,0.0,4.0,32,0.00,,CLR,0.00,258.00,VWS V14.01,2013-04-20 22:44:00,
2013-04-20 18:49:00,65.8,33.5,30.02,SSE,155,1.0,6.0,30,0.00,,CLR,0.00,239.00,VWS V14.01,2013-04-20 22:49:00,
2013-04-20 18:54:00,65.5,34.9,30.02,SE,129,0.0,6.0,32,0.00,,CLR,0.00,220.00,VWS V14.01,2013-04-20 22:54:00,
2013-04-20 18:59:00,65.2,36.9,30.02,SE,142,1.0,6.0,35,0.00,,CLR,0.00,204.00,VWS V14.01,2013-04-20 22:59:00,
2013-04-20 19:00:00,64.7,33.4,30.01,SSE,149,1.0,9.0,31,0.00,,CLR,0.00,408.00,VWS V14.01,2013-04-20 23:00:00,
2013-04-20 19:04:00,64.7,35.7,30.02,SE,132,0.0,4.0,34,0.00,,CLR,0.00,190.00,VWS V14.01,2013-04-20 23:04:00,
2013-04-20 19:09:00,64.5,36.3,30.02,SE,146,1.0,4.0,35,0.00,,CLR,0.00,172.00,VWS V14.01,2013-04-20 23:09:00,
2013-04-20 19:14:00,64.3,39.5,30.02,SE,142,4.0,6.0,40,0.00,,CLR,0.00,155.00,VWS V14.01,2013-04-20 23:14:00,
2013-04-20 19:19:00,64.2,36.7,30.02,SE,130,1.0,6.0,36,0.00,,CLR,0.00,139.00,VWS V14.01,2013-04-20 23:19:00,
2013-04-20 19:24:00,64.2,36.7,30.02,SE,132,0.0,6.0,36,0.00,,CLR,0.00,120.00,VWS V14.01,2013-04-20 23:24:00,
2013-04-20 19:29:00,64.2,37.4,30.02,East,101,0.0,6.0,37,0.00,,CLR,0.00,100.00,VWS V14.01,2013-04-20 23:29:00,
2013-04-20 19:30:00,65.8,35.2,30.02,SSE,167,2.0,4.0,32,0.00,,CLR,0.00,304.00,VWS V14.01,2013-04-20 23:30:00,
2013-04-20 19:34:00,64.3,36.1,30.03,East,101,0.0,1.0,35,0.00,,CLR,0.00,84.00,VWS V14.01,2013-04-20 23:34:00,
2013-04-20 19:39:00,64.3,36.1,30.03,ESE,115,0.0,1.0,35,0.00,,CLR,0.00,65.00,VWS V14.01,2013-04-20 23:39:00,
2013-04-20 19:44:00,64.0,35.1,30.03,ESE,123,0.0,1.0,34,0.00,,CLR,0.00,42.00,VWS V14.01,2013-04-20 23:44:00,
2013-04-20 19:49:00,63.5,37.5,30.04,ESE,123,0.0,1.0,38,0.00,,CLR,0.00,19.00,VWS V14.01,2013-04-20 23:49:00,
2013-04-20 19:54:00,62.9,36.2,30.04,ESE,123,0.0,1.0,37,0.00,,CLR,0.00,16.00,VWS V14.01,2013-04-20 23:54:00,
2013-04-20 19:59:00,62.1,38.1,30.04,ESE,121,0.0,1.0,41,0.00,,CLR,0.00,11.00,VWS V14.01,2013-04-20 23:59:00,
2013-04-20 20:00:00,65.0,36.7,30.02,SE,138,0.0,6.0,35,0.00,,CLR,0.00,200.00,VWS V14.01,2013-04-21 00:00:00,
2013-04-20 20:04:00,61.5,40.5,30.05,ESE,123,0.0,0.0,46,0.00,,CLR,0.00,7.00,VWS V14.01,2013-04-21 00:04:00,
2013-04-20 20:09:00,60.9,38.3,30.05,SE,125,0.0,0.0,43,0.00,,CLR,0.00,0.00,VWS V14.01,2013-04-21 00:09:00,
2013-04-20 20:14:00,60.2,38.8,30.05,SE,127,0.0,1.0,45,0.00,,CLR,0.00,0.00,VWS V14.01,2013-04-21 00:14:00,
2013-04-20 20:19:00,59.6,39.9,30.05,SE,126,0.0,1.0,48,0.00,,CLR,0.00,0.00,VWS V14.01,2013-04-21 00:19:00,
2013-04-20 20:24:00,59.2,39.0,30.05,SE,127,0.0,1.0,47,0.00,,CLR,0.00,0.00,VWS V14.01,2013-04-21 00:24:00,
2013-04-20 20:29:00,58.6,39.5,30.05,SE,127,0.0,1.0,49,0.00,,CLR,0.00,0.00,VWS V14.01,2013-04-21 00:29:00,
2013-04-20 20:30:00,64.2,35.3,30.03,ESE,106,0.0,6.0,34,0.00,,CLR,0.00,98.00,VWS V14.01,2013-04-21 00:30:00,
2013-04-20 20:34:00,58.3,40.8,30.07,SE,128,0.0,0.0,52,0.00,,CLR,0.00,0.00,VWS V14.01,2013-04-21 00:34:00,
2013-04-20 20:39:00,58.1,40.1,30.07,ESE,121,0.0,0.0,51,0.00,,CLR,0.00,0.00,VWS V14.01,2013-04-21 00:39:00,
2013-04-20 20:44:00,58.0,41.0,30.07,ESE,121,0.0,0.0,53,0.00,,CLR,0.00,0.00,VWS V14.01,2013-04-21 00:44:00,
2013-04-20 20:49:00,57.8,42.2,30.07,ESE,121,0.0,0.0,56,0.00,,CLR,0.00,0.00,VWS V14.01,2013-04-21 00:49:00,
2013-04-20 20:54:00,57.6,41.1,30.07,ESE,121,0.0,0.0,54,0.00,,CLR,0.00,0.00,VWS V14.01,2013-04-21 00:54:00,
2013-04-20 20:59:00,57.3,41.8,30.07,ESE,121,0.0,0.0,56,0.00,,CLR,0.00,0.00,VWS V14.01,2013-04-21 00:59:00,
2013-04-20 21:00:00,62.0,40.4,30.05,ESE,122,0.0,1.0,45,0.00,,CLR,0.00,9.00,VWS V14.01,2013-04-21 01:00:00,
2013-04-20 21:04:00,57.2,43.5,30.08,ESE,121,0.0,1.0,60,0.00,,CLR,0.00,0.00,VWS V14.01,2013-04-21 01:04:00,
2013-04-20 21:09:00,57.0,43.7,30.08,ESE,121,0.0,1.0,61,0.00,,CLR,0.00,0.00,VWS V14.01,2013-04-21 01:09:00,
2013-04-20 21:14:00,56.9,43.2,30.08,ESE,121,0.0,1.0,60,0.00,,CLR,0.00,0.00,VWS V14.01,2013-04-21 01:14:00,
2013-04-20 21:19:00,56.6,43.3,30.09,ESE,121,0.0,1.0,61,0.00,,CLR,0.00,0.00,VWS V14.01,2013-04-21 01:19:00,
2013-04-20 21:24:00,56.5,43.2,30.09,ESE,121,0.0,1.0,61,0.00,,CLR,0.00,0.00,VWS V14.01,2013-04-21 01:24:00,
2013-04-20 21:29:00,57.2,43.0,30.09,ENE,72,4.0,12.0,59,0.00,,CLR,0.00,0.00,VWS V14.01,2013-04-21 01:29:00,
2013-04-20 21:30:00,58.6,40.5,30.07,SE,127,0.0,1.0,51,0.00,,CLR,0.00,0.00,VWS V14.01,2013-04-21 01:30:00,
2013-04-20 21:34:00,58.0,43.3,30.10,East,80,6.0,7.0,58,0.00,,CLR,0.00,0.00,VWS V14.01,2013-04-21 01:34:00,
2013-04-20 21:39:00,58.9,42.8,30.10,North,360,8.0,10.0,55,0.00,,CLR,0.00,0.00,VWS V14.01,2013-04-21 01:39:00,
2013-04-20 21:44:00,59.3,43.2,30.10,North,360,6.0,10.0,55,0.00,,CLR,0.00,0.00,VWS V14.01,2013-04-21 01:44:00,
2013-04-20 21:49:00,59.2,40.1,30.11,ENE,71,9.0,10.0,49,0.00,,CLR,0.00,0.00,VWS V14.01,2013-04-21 01:49:00,
2013-04-20 21:54:00,59.2,43.1,30.11,East,84,7.0,10.0,55,0.00,,CLR,0.00,0.00,VWS V14.01,2013-04-21 01:54:00,
2013-04-20 21:59:00,59.0,41.9,30.11,East,82,7.0,11.0,53,0.00,,CLR,0.00,0.00,VWS V14.01,2013-04-21 01:59:00,
2013-04-20 22:00:00,57.3,42.7,30.08,ESE,121,0.0,0.0,58,0.00,,CLR,0.00,0.00,VWS V14.01,2013-04-21 02:00:00,
2013-04-20 22:04:00,58.7,41.6,30.11,ENE,77,7.0,9.0,53,0.00,,CLR,0.00,0.00,VWS V14.01,2013-04-21 02:04:00,
2013-04-20 22:09:00,58.6,42.5,30.11,NE,34,4.0,9.0,55,0.00,,CLR,0.00,0.00,VWS V14.01,2013-04-21 02:09:00,
2013-04-20 22:14:00,58.6,42.5,30.11,NNE,18,5.0,9.0,55,0.00,,CLR,0.00,0.00,VWS V14.01,2013-04-21 02:14:00,
2013-04-20 22:19:00,58.6,43.0,30.12,NNE,15,4.0,9.0,56,0.00,,CLR,0.00,0.00,VWS V14.01,2013-04-21 02:19:00,
2013-04-20 22:24:00,58.4,42.3,30.12,NNW,331,3.0,9.0,55,0.00,,CLR,0.00,0.00,VWS V14.01,2013-04-21 02:24:00,
2013-04-20 22:29:00,58.0,42.9,30.12,North,349,1.0,9.0,57,0.00,,CLR,0.00,0.00,VWS V14.01,2013-04-21 02:29:00,
2013-04-20 22:30:00,57.3,43.5,30.10,ENE,67,1.0,12.0,60,0.00,,CLR,0.00,0.00,VWS V14.01,2013-04-21 02:30:00,
2013-04-20 22:34:00,57.3,42.2,30.13,NW,321,3.0,5.0,57,0.00,,CLR,0.00,0.00,VWS V14.01,2013-04-21 02:34:00,
2013-04-20 22:39:00,57.0,42.4,30.13,NW,311,4.0,7.0,58,0.00,,CLR,0.00,0.00,VWS V14.01,2013-04-21 02:39:00,
2013-04-20 22:44:00,56.6,40.6,30.13,NW,324,3.0,7.0,55,0.00,,CLR,0.00,0.00,VWS V14.01,2013-04-21 02:44:00,
2013-04-20 22:49:00,56.5,40.1,30.13,North,360,0.0,7.0,54,0.00,,CLR,0.00,0.00,VWS V14.01,2013-04-21 02:49:00,
2013-04-20 22:54:00,56.6,40.6,30.13,NNW,343,2.0,7.0,55,0.00,,CLR,0.00,0.00,VWS V14.01,2013-04-21 02:54:00,
2013-04-20 22:59:00,56.9,39.5,30.13,NW,307,6.0,7.0,52,0.00,,CLR,0.00,0.00,VWS V14.01,2013-04-21 02:59:00,
2013-04-20 23:00:00,58.9,41.8,30.11,ENE,71,6.0,11.0,53,0.00,,CLR,0.00,0.00,VWS V14.01,2013-04-21 03:00:00,
2013-04-20 23:04:00,57.2,44.7,30.15,ESE,115,8.0,14.0,63,0.00,,CLR,0.00,0.00,VWS V14.01,2013-04-21 03:04:00,
2013-04-20 23:09:00,56.6,41.6,30.15,ESE,113,5.0,14.0,57,0.00,,CLR,0.00,0.00,VWS V14.01,2013-04-21 03:09:00,
2013-04-20 23:14:00,56.5,40.5,30.15,ENE,74,6.0,14.0,55,0.00,,CLR,0.00,0.00,VWS V14.01,2013-04-21 03:14:00,
2013-04-20 23:19:00,56.5,39.6,30.15,ENE,71,4.0,14.0,53,0.00,,CLR,0.00,0.00,VWS V14.01,2013-04-21 03:19:00,
2013-04-20 23:24:00,56.3,36.9,30.15,ENE,70,4.0,14.0,48,0.00,,CLR,0.00,0.00,VWS V14.01,2013-04-21 03:24:00,
2013-04-20 23:29:00,56.3,39.4,30.15,East,81,2.0,14.0,53,0.00,,CLR,0.00,0.00,VWS V14.01,2013-04-21 03:29:00,
2013-04-20 23:30:00,57.8,42.7,30.13,NW,315,4.0,9.0,57,0.00,,CLR,0.00,0.00,VWS V14.01,2013-04-21 03:30:00,
2013-04-20 23:34:00,56.2,36.8,30.14,ENE,64,2.0,4.0,48,0.00,,CLR,0.00,0.00,VWS V14.01,2013-04-21 03:34:00,
2013-04-20 23:39:00,56.2,36.3,30.14,ENE,57,1.0,4.0,47,0.00,,CLR,0.00,0.00,VWS V14.01,2013-04-21 03:39:00,
2013-04-20 23:44:00,56.3,36.3,30.14,ENE,57,2.0,4.0,47,0.00,,CLR,0.00,0.00,VWS V14.01,2013-04-21 03:44:00,
2013-04-20 23:49:00,56.5,38.6,30.15,NE,51,3.0,5.0,51,0.00,,CLR,0.00,0.00,VWS V14.01,2013-04-21 03:49:00,
2013-04-20 23:54:00,56.3,42.2,30.15,WNW,291,0.0,5.0,59,0.00,,CLR,0.00,0.00,VWS V14.01,2013-04-21 03:54:00,
2013-04-20 23:58:00,55.3,43.8,30.15,West,275,0.0,5.0,65,0.00,,CLR,0.00,0.00,VWS V14.01,2013-04-21 03:58:00,